sensor_id;sensor_type;location;lat;lon;timestamp;pressure;altitude;pressure_sealevel;temperature;humidity
40155;BME280;25875;48.202;16.334;2023-03-14T00:02:31;97468.91;;;9.55;50.56
40155;BME280;25875;48.202;16.334;2023-03-14T00:04:58;97428.09;;;9.25;50.56
40155;BME280;25875;48.202;16.334;2023-03-14T00:07:24;97464.47;;;9.55;50.43
40155;BME280;25875;48.202;16.334;2023-03-14T00:09:51;97470.47;;;9.57;50.42
40155;BME280;25875;48.202;16.334;2023-03-14T00:12:18;97457.13;;;9.59;50.27
40155;BME280;25875;48.202;16.334;2023-03-14T00:14:45;97459.78;;;9.59;50.34
40155;BME280;25875;48.202;16.334;2023-03-14T00:17:13;97423.50;;;9.39;50.39
40155;BME280;25875;48.202;16.334;2023-03-14T00:19:40;97441.97;;;9.61;50.34
40155;BME280;25875;48.202;16.334;2023-03-14T00:22:07;97450.63;;;9.63;50.46
40155;BME280;25875;48.202;16.334;2023-03-14T00:24:34;97434.03;;;9.61;50.47
40155;BME280;25875;48.202;16.334;2023-03-14T00:27:00;97430.81;;;9.57;50.72
40155;BME280;25875;48.202;16.334;2023-03-14T00:29:27;97427.56;;;9.54;50.81
40155;BME280;25875;48.202;16.334;2023-03-14T00:31:54;97430.34;;;9.52;50.88
40155;BME280;25875;48.202;16.334;2023-03-14T00:34:22;97412.78;;;9.51;50.83
40155;BME280;25875;48.202;16.334;2023-03-14T00:36:49;97325.66;;;8.95;50.86
40155;BME280;25875;48.202;16.334;2023-03-14T00:39:16;97271.47;;;8.58;51.02
40155;BME280;25875;48.202;16.334;2023-03-14T00:41:42;97417.50;;;9.48;51.02
40155;BME280;25875;48.202;16.334;2023-03-14T00:44:09;97392.72;;;9.38;51.09
40155;BME280;25875;48.202;16.334;2023-03-14T00:46:36;97412.91;;;9.50;50.95
40155;BME280;25875;48.202;16.334;2023-03-14T00:49:03;97411.94;;;9.51;51.00
40155;BME280;25875;48.202;16.334;2023-03-14T00:51:31;97399.56;;;9.51;51.05
40155;BME280;25875;48.202;16.334;2023-03-14T00:53:59;97410.41;;;9.48;51.12
40155;BME280;25875;48.202;16.334;2023-03-14T00:56:26;97394.53;;;9.48;51.15
40155;BME280;25875;48.202;16.334;2023-03-14T00:58:53;97384.78;;;9.49;50.90
40155;BME280;25875;48.202;16.334;2023-03-14T01:01:21;97373.38;;;9.48;51.16
40155;BME280;25875;48.202;16.334;2023-03-14T01:03:51;97384.91;;;9.47;51.60
40155;BME280;25875;48.202;16.334;2023-03-14T01:06:20;97309.41;;;9.11;51.06
40155;BME280;25875;48.202;16.334;2023-03-14T01:08:49;97364.16;;;9.43;51.41
40155;BME280;25875;48.202;16.334;2023-03-14T01:11:18;97356.22;;;9.43;51.18
40155;BME280;25875;48.202;16.334;2023-03-14T01:13:46;97364.84;;;9.45;51.11
40155;BME280;25875;48.202;16.334;2023-03-14T01:16:13;97358.72;;;9.44;51.31
40155;BME280;25875;48.202;16.334;2023-03-14T01:18:42;97254.38;;;8.73;51.39
40155;BME280;25875;48.202;16.334;2023-03-14T01:21:11;97345.75;;;9.41;51.50
40155;BME280;25875;48.202;16.334;2023-03-14T01:23:38;97317.19;;;9.24;51.46
40155;BME280;25875;48.202;16.334;2023-03-14T01:26:09;97343.34;;;9.38;51.99
40155;BME280;25875;48.202;16.334;2023-03-14T01:28:36;97331.22;;;9.36;51.49
40155;BME280;25875;48.202;16.334;2023-03-14T01:31:04;97126.03;;;8.18;51.45
40155;BME280;25875;48.202;16.334;2023-03-14T01:33:30;97290.78;;;9.13;51.53
40155;BME280;25875;48.202;16.334;2023-03-14T01:35:57;97329.41;;;9.36;51.45
40155;BME280;25875;48.202;16.334;2023-03-14T01:38:24;97324.13;;;9.36;51.47
40155;BME280;25875;48.202;16.334;2023-03-14T01:40:51;97328.56;;;9.36;51.45
40155;BME280;25875;48.202;16.334;2023-03-14T01:43:20;97325.91;;;9.36;51.57
40155;BME280;25875;48.202;16.334;2023-03-14T01:46:16;97318.25;;;9.32;53.08
40155;BME280;25875;48.202;16.334;2023-03-14T01:48:45;97322.59;;;9.22;53.66
40155;BME280;25875;48.202;16.334;2023-03-14T01:51:16;97331.50;;;9.21;51.97
40155;BME280;25875;48.202;16.334;2023-03-14T01:53:44;97245.63;;;8.73;51.72
40155;BME280;25875;48.202;16.334;2023-03-14T01:56:13;97312.16;;;9.10;51.70
40155;BME280;25875;48.202;16.334;2023-03-14T01:58:43;97238.53;;;8.73;51.95
40155;BME280;25875;48.202;16.334;2023-03-14T02:01:11;97324.16;;;9.14;52.07
40155;BME280;25875;48.202;16.334;2023-03-14T02:03:45;97335.44;;;9.16;52.99
40155;BME280;25875;48.202;16.334;2023-03-14T02:06:14;97341.81;;;9.13;52.33
40155;BME280;25875;48.202;16.334;2023-03-14T02:08:44;97329.69;;;9.11;52.27
40155;BME280;25875;48.202;16.334;2023-03-14T02:11:14;97015.69;;;6.68;52.13
40155;BME280;25875;48.202;16.334;2023-03-14T02:13:42;97336.06;;;9.08;52.55
40155;BME280;25875;48.202;16.334;2023-03-14T02:16:09;97326.97;;;9.01;52.35
40155;BME280;25875;48.202;16.334;2023-03-14T02:18:37;97254.31;;;8.52;52.43
40155;BME280;25875;48.202;16.334;2023-03-14T02:21:11;97335.84;;;9.00;52.81
40155;BME280;25875;48.202;16.334;2023-03-14T02:23:46;97303.13;;;8.80;53.31
40155;BME280;25875;48.202;16.334;2023-03-14T02:26:19;97325.41;;;8.98;52.69
40155;BME280;25875;48.202;16.334;2023-03-14T02:28:50;97331.66;;;8.97;52.66
40155;BME280;25875;48.202;16.334;2023-03-14T02:31:18;97339.97;;;8.71;52.51
40155;BME280;25875;48.202;16.334;2023-03-14T02:33:46;97351.34;;;8.93;52.71
40155;BME280;25875;48.202;16.334;2023-03-14T02:36:14;97364.44;;;8.95;52.74
40155;BME280;25875;48.202;16.334;2023-03-14T02:38:46;97347.78;;;8.83;53.26
40155;BME280;25875;48.202;16.334;2023-03-14T02:41:14;97355.31;;;8.88;53.05
40155;BME280;25875;48.202;16.334;2023-03-14T02:43:41;97366.25;;;8.83;53.10
40155;BME280;25875;48.202;16.334;2023-03-14T02:46:10;97366.38;;;8.82;53.39
40155;BME280;25875;48.202;16.334;2023-03-14T02:48:40;97383.06;;;8.82;53.18
40155;BME280;25875;48.202;16.334;2023-03-14T02:51:07;97364.94;;;8.78;53.34
40155;BME280;25875;48.202;16.334;2023-03-14T02:53:36;97311.94;;;8.36;53.52
40155;BME280;25875;48.202;16.334;2023-03-14T02:56:04;97370.59;;;8.73;53.42
40155;BME280;25875;48.202;16.334;2023-03-14T02:58:31;97194.63;;;7.51;53.52
40155;BME280;25875;48.202;16.334;2023-03-14T03:00:58;96797.38;;;5.07;53.32
40155;BME280;25875;48.202;16.334;2023-03-14T03:03:26;97311.19;;;8.12;53.36
40155;BME280;25875;48.202;16.334;2023-03-14T03:05:55;97355.59;;;8.40;53.36
40155;BME280;25875;48.202;16.334;2023-03-14T03:08:24;97425.69;;;8.78;53.39
40155;BME280;25875;48.202;16.334;2023-03-14T03:10:52;97436.38;;;8.76;53.35
40155;BME280;25875;48.202;16.334;2023-03-14T03:13:19;97435.66;;;8.74;53.31
40155;BME280;25875;48.202;16.334;2023-03-14T03:15:46;97235.59;;;7.44;53.35
40155;BME280;25875;48.202;16.334;2023-03-14T03:18:13;97414.41;;;8.53;53.31
40155;BME280;25875;48.202;16.334;2023-03-14T03:20:41;97458.59;;;8.74;53.39
40155;BME280;25875;48.202;16.334;2023-03-14T03:23:08;97392.06;;;8.35;53.42
40155;BME280;25875;48.202;16.334;2023-03-14T03:25:34;97464.00;;;8.72;53.36
40155;BME280;25875;48.202;16.334;2023-03-14T03:28:01;97463.75;;;8.75;53.45
40155;BME280;25875;48.202;16.334;2023-03-14T03:30:33;97466.50;;;8.74;53.45
40155;BME280;25875;48.202;16.334;2023-03-14T03:33:00;97480.44;;;8.76;53.44
40155;BME280;25875;48.202;16.334;2023-03-14T03:35:27;97475.41;;;8.73;53.32
40155;BME280;25875;48.202;16.334;2023-03-14T03:37:55;97450.66;;;8.62;53.59
40155;BME280;25875;48.202;16.334;2023-03-14T03:40:22;97473.72;;;8.72;53.37
40155;BME280;25875;48.202;16.334;2023-03-14T03:42:48;97468.44;;;8.72;53.75
40155;BME280;25875;48.202;16.334;2023-03-14T03:45:15;97401.19;;;8.42;53.26
40155;BME280;25875;48.202;16.334;2023-03-14T03:47:42;97459.66;;;8.71;53.33
40155;BME280;25875;48.202;16.334;2023-03-14T03:50:10;97455.34;;;8.70;53.14
40155;BME280;25875;48.202;16.334;2023-03-14T03:52:36;97087.41;;;5.39;53.06
40155;BME280;25875;48.202;16.334;2023-03-14T03:55:06;97453.53;;;8.71;53.15
40155;BME280;25875;48.202;16.334;2023-03-14T03:57:34;97456.31;;;8.69;52.93
40155;BME280;25875;48.202;16.334;2023-03-14T04:00:01;97390.63;;;8.31;52.75
40155;BME280;25875;48.202;16.334;2023-03-14T04:02:28;97435.53;;;8.53;52.83
40155;BME280;25875;48.202;16.334;2023-03-14T04:04:55;96389.31;;;2.18;52.54
40155;BME280;25875;48.202;16.334;2023-03-14T04:07:22;97163.22;;;6.90;52.75
40155;BME280;25875;48.202;16.334;2023-03-14T04:09:48;97456.91;;;8.61;52.80
40155;BME280;25875;48.202;16.334;2023-03-14T04:12:17;97417.16;;;8.41;52.74
40155;BME280;25875;48.202;16.334;2023-03-14T04:14:45;97445.84;;;8.56;52.85
40155;BME280;25875;48.202;16.334;2023-03-14T04:17:11;97447.66;;;8.56;52.78
40155;BME280;25875;48.202;16.334;2023-03-14T04:19:38;97450.41;;;8.54;52.98
40155;BME280;25875;48.202;16.334;2023-03-14T04:22:06;97461.94;;;8.53;52.81
40155;BME280;25875;48.202;16.334;2023-03-14T04:24:32;97441.16;;;8.49;52.84
40155;BME280;25875;48.202;16.334;2023-03-14T04:26:59;97455.91;;;8.51;52.81
40155;BME280;25875;48.202;16.334;2023-03-14T04:29:27;97393.94;;;8.11;52.86
40155;BME280;25875;48.202;16.334;2023-03-14T04:31:54;97455.91;;;8.51;52.90
40155;BME280;25875;48.202;16.334;2023-03-14T04:34:21;97393.00;;;8.12;52.70
40155;BME280;25875;48.202;16.334;2023-03-14T04:36:48;97457.38;;;8.55;52.76
40155;BME280;25875;48.202;16.334;2023-03-14T04:39:15;97465.91;;;8.59;52.76
40155;BME280;25875;48.202;16.334;2023-03-14T04:41:41;97446.69;;;8.46;52.71
40155;BME280;25875;48.202;16.334;2023-03-14T04:44:08;97481.28;;;8.65;52.95
40155;BME280;25875;48.202;16.334;2023-03-14T04:46:36;97434.56;;;8.43;52.58
40155;BME280;25875;48.202;16.334;2023-03-14T04:49:03;97465.78;;;8.72;52.51
40155;BME280;25875;48.202;16.334;2023-03-14T04:51:30;97454.25;;;8.73;52.49
40155;BME280;25875;48.202;16.334;2023-03-14T04:53:56;97454.88;;;8.76;52.51
40155;BME280;25875;48.202;16.334;2023-03-14T04:56:23;97458.22;;;8.78;52.42
40155;BME280;25875;48.202;16.334;2023-03-14T04:58:50;97466.03;;;8.80;52.35
40155;BME280;25875;48.202;16.334;2023-03-14T05:01:17;97430.97;;;8.55;52.45
40155;BME280;25875;48.202;16.334;2023-03-14T05:03:45;97442.25;;;8.57;52.44
40155;BME280;25875;48.202;16.334;2023-03-14T05:06:12;97427.59;;;8.53;52.49
40155;BME280;25875;48.202;16.334;2023-03-14T05:08:39;97434.81;;;8.62;52.35
40155;BME280;25875;48.202;16.334;2023-03-14T05:11:06;97363.97;;;8.23;52.55
40155;BME280;25875;48.202;16.334;2023-03-14T05:13:32;97395.91;;;8.53;52.32
40155;BME280;25875;48.202;16.334;2023-03-14T05:16:07;97489.81;;;8.91;53.31
40155;BME280;25875;48.202;16.334;2023-03-14T05:18:34;97473.72;;;8.94;52.45
40155;BME280;25875;48.202;16.334;2023-03-14T05:21:03;97479.00;;;8.94;52.60
40155;BME280;25875;48.202;16.334;2023-03-14T05:23:30;97470.13;;;8.84;52.59
40155;BME280;25875;48.202;16.334;2023-03-14T05:25:57;97496.31;;;8.98;52.53
40155;BME280;25875;48.202;16.334;2023-03-14T05:28:24;97508.44;;;9.00;52.41
40155;BME280;25875;48.202;16.334;2023-03-14T05:30:51;97522.38;;;9.03;52.55
40155;BME280;25875;48.202;16.334;2023-03-14T05:33:18;97521.53;;;9.02;52.67
40155;BME280;25875;48.202;16.334;2023-03-14T05:35:44;97520.56;;;9.03;52.53
40155;BME280;25875;48.202;16.334;2023-03-14T05:38:13;97518.66;;;9.05;52.66
40155;BME280;25875;48.202;16.334;2023-03-14T05:40:40;97456.66;;;8.53;52.60
40155;BME280;25875;48.202;16.334;2023-03-14T05:43:06;97527.19;;;9.09;52.29
40155;BME280;25875;48.202;16.334;2023-03-14T05:45:34;97526.22;;;9.10;52.62
40155;BME280;25875;48.202;16.334;2023-03-14T05:48:01;97530.78;;;9.08;52.58
40155;BME280;25875;48.202;16.334;2023-03-14T05:50:27;97538.22;;;9.14;52.60
40155;BME280;25875;48.202;16.334;2023-03-14T05:52:54;97529.34;;;9.15;52.57
40155;BME280;25875;48.202;16.334;2023-03-14T05:55:22;97550.25;;;9.18;52.59
40155;BME280;25875;48.202;16.334;2023-03-14T05:57:49;97511.06;;;8.89;52.69
40155;BME280;25875;48.202;16.334;2023-03-14T06:00:17;97554.81;;;9.16;52.75
40155;BME280;25875;48.202;16.334;2023-03-14T06:02:44;97331.75;;;7.73;52.90
40155;BME280;25875;48.202;16.334;2023-03-14T06:05:11;97570.91;;;9.13;52.78
40155;BME280;25875;48.202;16.334;2023-03-14T06:07:38;97575.47;;;9.11;52.98
40155;BME280;25875;48.202;16.334;2023-03-14T06:10:05;97563.09;;;9.11;52.85
40155;BME280;25875;48.202;16.334;2023-03-14T06:12:34;97554.22;;;9.12;52.96
40155;BME280;25875;48.202;16.334;2023-03-14T06:15:01;97551.69;;;9.11;52.82
40155;BME280;25875;48.202;16.334;2023-03-14T06:17:27;97550.84;;;9.10;52.86
40155;BME280;25875;48.202;16.334;2023-03-14T06:19:54;97561.41;;;9.10;52.88
40155;BME280;25875;48.202;16.334;2023-03-14T06:22:21;97563.09;;;9.11;52.76
40155;BME280;25875;48.202;16.334;2023-03-14T06:24:48;97554.56;;;9.08;52.84
40155;BME280;25875;48.202;16.334;2023-03-14T06:27:14;97556.38;;;9.07;52.64
40155;BME280;25875;48.202;16.334;2023-03-14T06:29:42;97419.06;;;8.27;52.72
40155;BME280;25875;48.202;16.334;2023-03-14T06:32:10;97436.09;;;8.34;52.71
40155;BME280;25875;48.202;16.334;2023-03-14T06:34:36;97552.88;;;9.07;52.51
40155;BME280;25875;48.202;16.334;2023-03-14T06:37:04;97569.56;;;9.07;52.61
40155;BME280;25875;48.202;16.334;2023-03-14T06:39:31;97503.50;;;8.74;52.50
40155;BME280;25875;48.202;16.334;2023-03-14T06:41:57;97535.22;;;8.96;52.35
40155;BME280;25875;48.202;16.334;2023-03-14T06:44:24;97556.59;;;9.15;52.33
40155;BME280;25875;48.202;16.334;2023-03-14T06:46:53;97543.28;;;9.17;52.51
40155;BME280;25875;48.202;16.334;2023-03-14T06:49:20;97531.41;;;9.22;52.34
40155;BME280;25875;48.202;16.334;2023-03-14T06:51:46;97545.00;;;9.51;52.23
40155;BME280;25875;48.202;16.334;2023-03-14T06:54:13;97553.88;;;9.73;51.62
40155;BME280;25875;48.202;16.334;2023-03-14T06:56:40;97551.59;;;9.79;51.50
40155;BME280;25875;48.202;16.334;2023-03-14T06:59:07;97554.94;;;9.81;51.14
40155;BME280;25875;48.202;16.334;2023-03-14T07:01:33;97517.22;;;9.57;51.33
40155;BME280;25875;48.202;16.334;2023-03-14T07:04:02;97493.19;;;9.38;51.40
40155;BME280;25875;48.202;16.334;2023-03-14T07:06:29;97306.41;;;8.28;51.43
40155;BME280;25875;48.202;16.334;2023-03-14T07:08:56;97446.19;;;9.19;51.41
40155;BME280;25875;48.202;16.334;2023-03-14T07:11:23;97557.06;;;9.99;51.19
40155;BME280;25875;48.202;16.334;2023-03-14T07:13:50;97563.38;;;10.18;51.02
40155;BME280;25875;48.202;16.334;2023-03-14T07:16:17;97505.41;;;9.72;50.62
40155;BME280;25875;48.202;16.334;2023-03-14T07:18:45;97426.88;;;9.29;50.73
40155;BME280;25875;48.202;16.334;2023-03-14T07:21:13;97573.38;;;10.15;50.68
40155;BME280;25875;48.202;16.334;2023-03-14T07:23:40;97570.66;;;10.05;51.06
40155;BME280;25875;48.202;16.334;2023-03-14T07:26:07;97572.94;;;9.99;51.44
40155;BME280;25875;48.202;16.334;2023-03-14T07:28:34;97572.22;;;9.97;51.30
40155;BME280;25875;48.202;16.334;2023-03-14T07:31:00;97572.34;;;9.95;51.52
40155;BME280;25875;48.202;16.334;2023-03-14T07:33:27;97533.22;;;9.67;51.51
40155;BME280;25875;48.202;16.334;2023-03-14T07:35:54;97573.44;;;9.92;51.64
40155;BME280;25875;48.202;16.334;2023-03-14T07:38:22;97569.13;;;9.91;51.68
40155;BME280;25875;48.202;16.334;2023-03-14T07:40:49;97576.34;;;9.89;51.90
40155;BME280;25875;48.202;16.334;2023-03-14T07:43:16;97497.91;;;9.45;51.91
40155;BME280;25875;48.202;16.334;2023-03-14T07:45:45;97462.44;;;9.25;51.96
40155;BME280;25875;48.202;16.334;2023-03-14T07:48:12;97562.00;;;9.92;52.02
40155;BME280;25875;48.202;16.334;2023-03-14T07:50:39;97555.50;;;9.96;52.30
40155;BME280;25875;48.202;16.334;2023-03-14T07:53:06;97557.16;;;10.08;52.62
40155;BME280;25875;48.202;16.334;2023-03-14T07:55:34;97382.69;;;9.20;52.98
40155;BME280;25875;48.202;16.334;2023-03-14T07:58:01;97549.59;;;10.36;53.27
40155;BME280;25875;48.202;16.334;2023-03-14T08:00:28;97559.31;;;10.46;53.01
40155;BME280;25875;48.202;16.334;2023-03-14T08:02:55;97555.16;;;10.53;52.96
40155;BME280;25875;48.202;16.334;2023-03-14T08:05:21;97398.22;;;9.57;53.03
40155;BME280;25875;48.202;16.334;2023-03-14T08:07:48;97461.69;;;10.21;53.04
40155;BME280;25875;48.202;16.334;2023-03-14T08:10:15;97534.69;;;10.76;53.27
40155;BME280;25875;48.202;16.334;2023-03-14T08:12:49;97538.66;;;10.82;53.32
40155;BME280;25875;48.202;16.334;2023-03-14T08:15:15;97533.81;;;10.87;53.11
40155;BME280;25875;48.202;16.334;2023-03-14T08:17:42;97528.53;;;10.87;53.17
40155;BME280;25875;48.202;16.334;2023-03-14T08:20:10;97542.94;;;10.94;53.43
40155;BME280;25875;48.202;16.334;2023-03-14T08:22:38;97477.84;;;10.18;53.27
40155;BME280;25875;48.202;16.334;2023-03-14T08:25:06;97507.91;;;10.90;53.35
40155;BME280;25875;48.202;16.334;2023-03-14T08:27:32;97524.88;;;11.09;53.61
40155;BME280;25875;48.202;16.334;2023-03-14T08:30:01;97546.66;;;11.12;53.81
40155;BME280;25875;48.202;16.334;2023-03-14T08:32:28;97547.09;;;11.17;53.57
40155;BME280;25875;48.202;16.334;2023-03-14T08:34:55;97414.41;;;10.37;53.36
40155;BME280;25875;48.202;16.334;2023-03-14T08:37:22;97484.75;;;10.93;53.68
40155;BME280;25875;48.202;16.334;2023-03-14T08:39:50;97417.66;;;10.41;53.44
40155;BME280;25875;48.202;16.334;2023-03-14T08:42:17;97460.16;;;10.81;53.78
40155;BME280;25875;48.202;16.334;2023-03-14T08:44:44;97539.38;;;11.35;53.31
40155;BME280;25875;48.202;16.334;2023-03-14T08:47:13;97538.38;;;11.36;53.59
40155;BME280;25875;48.202;16.334;2023-03-14T08:49:40;97528.50;;;11.38;53.57
40155;BME280;25875;48.202;16.334;2023-03-14T08:52:06;97527.38;;;11.41;53.74
40155;BME280;25875;48.202;16.334;2023-03-14T08:54:33;97472.41;;;11.12;53.26
40155;BME280;25875;48.202;16.334;2023-03-14T08:57:00;97528.66;;;11.46;53.45
40155;BME280;25875;48.202;16.334;2023-03-14T08:59:27;97477.63;;;11.23;53.17
40155;BME280;25875;48.202;16.334;2023-03-14T09:01:53;97529.22;;;11.50;53.41
40155;BME280;25875;48.202;16.334;2023-03-14T09:04:22;97521.28;;;11.50;53.29
40155;BME280;25875;48.202;16.334;2023-03-14T09:06:49;97519.31;;;11.52;53.09
40155;BME280;25875;48.202;16.334;2023-03-14T09:09:16;97489.09;;;11.34;53.23
40155;BME280;25875;48.202;16.334;2023-03-14T09:11:43;97441.28;;;11.05;53.34
40155;BME280;25875;48.202;16.334;2023-03-14T09:14:10;97526.03;;;11.56;53.00
40155;BME280;25875;48.202;16.334;2023-03-14T09:16:37;97444.22;;;11.11;53.07
40155;BME280;25875;48.202;16.334;2023-03-14T09:19:03;97518.50;;;11.61;52.86
40155;BME280;25875;48.202;16.334;2023-03-14T09:21:32;97529.81;;;11.63;53.05
40155;BME280;25875;48.202;16.334;2023-03-14T09:23:59;97534.03;;;11.66;52.81
40155;BME280;25875;48.202;16.334;2023-03-14T09:26:25;97533.88;;;11.67;52.81
40155;BME280;25875;48.202;16.334;2023-03-14T09:28:52;97523.28;;;11.67;52.87
40155;BME280;25875;48.202;16.334;2023-03-14T09:31:19;97528.44;;;11.69;53.06
40155;BME280;25875;48.202;16.334;2023-03-14T09:33:46;97518.94;;;11.66;52.67
40155;BME280;25875;48.202;16.334;2023-03-14T09:36:13;97534.59;;;11.69;53.03
40155;BME280;25875;48.202;16.334;2023-03-14T09:38:41;97440.75;;;11.11;52.85
40155;BME280;25875;48.202;16.334;2023-03-14T09:41:15;97528.19;;;11.72;53.16
40155;BME280;25875;48.202;16.334;2023-03-14T09:43:44;97041.56;;;8.71;52.63
40155;BME280;25875;48.202;16.334;2023-03-14T09:46:13;97531.53;;;11.74;52.97
40155;BME280;25875;48.202;16.334;2023-03-14T09:48:40;97535.88;;;11.75;52.94
40155;BME280;25875;48.202;16.334;2023-03-14T09:51:13;97542.16;;;11.74;53.10
40155;BME280;25875;48.202;16.334;2023-03-14T09:53:43;97525.38;;;11.73;52.88
40155;BME280;25875;48.202;16.334;2023-03-14T09:56:13;97474.75;;;11.36;53.01
40155;BME280;25875;48.202;16.334;2023-03-14T09:58:45;97363.41;;;10.66;52.98
40155;BME280;25875;48.202;16.334;2023-03-14T10:01:17;97524.66;;;11.62;52.86
40155;BME280;25875;48.202;16.334;2023-03-14T10:03:47;97537.69;;;11.74;52.91
40155;BME280;25875;48.202;16.334;2023-03-14T10:06:14;97403.03;;;10.98;52.75
40155;BME280;25875;48.202;16.334;2023-03-14T10:08:45;97509.16;;;11.57;52.64
40155;BME280;25875;48.202;16.334;2023-03-14T10:11:14;97476.78;;;11.23;52.70
40155;BME280;25875;48.202;16.334;2023-03-14T10:13:50;97491.38;;;11.48;52.80
40155;BME280;25875;48.202;16.334;2023-03-14T10:16:28;97460.38;;;11.39;52.75
40155;BME280;25875;48.202;16.334;2023-03-14T10:19:01;97533.66;;;11.89;52.69
40155;BME280;25875;48.202;16.334;2023-03-14T10:21:29;97535.91;;;11.94;52.53
40155;BME280;25875;48.202;16.334;2023-03-14T10:26:53;97393.28;;;11.08;52.21
40155;BME280;25875;48.202;16.334;2023-03-14T10:29:22;97546.56;;;12.04;52.09
40155;BME280;25875;48.202;16.334;2023-03-14T10:31:52;97548.94;;;12.07;52.32
40155;BME280;25875;48.202;16.334;2023-03-14T10:34:22;97401.00;;;11.20;52.00
40155;BME280;25875;48.202;16.334;2023-03-14T10:36:53;97556.09;;;12.06;52.03
40155;BME280;25875;48.202;16.334;2023-03-14T10:39:38;97554.81;;;12.10;52.35
40155;BME280;25875;48.202;16.334;2023-03-14T10:42:14;97515.78;;;11.92;52.84
40155;BME280;25875;48.202;16.334;2023-03-14T10:44:44;97554.81;;;12.10;52.64
40155;BME280;25875;48.202;16.334;2023-03-14T10:47:17;97531.28;;;11.96;53.83
40155;BME280;25875;48.202;16.334;2023-03-14T10:49:45;97544.75;;;12.04;53.39
40155;BME280;25875;48.202;16.334;2023-03-14T10:52:15;97472.41;;;11.52;53.86
40155;BME280;25875;48.202;16.334;2023-03-14T10:54:47;97545.41;;;11.97;53.71
40155;BME280;25875;48.202;16.334;2023-03-14T10:57:14;97495.34;;;11.63;53.37
40155;BME280;25875;48.202;16.334;2023-03-14T10:59:42;97540.66;;;11.91;53.47
40155;BME280;25875;48.202;16.334;2023-03-14T11:02:20;97546.22;;;11.87;53.44
40155;BME280;25875;48.202;16.334;2023-03-14T11:04:59;97441.03;;;11.17;53.03
40155;BME280;25875;48.202;16.334;2023-03-14T11:07:33;97501.88;;;11.49;52.68
40155;BME280;25875;48.202;16.334;2023-03-14T11:10:11;97444.06;;;11.03;52.26
40155;BME280;25875;48.202;16.334;2023-03-14T11:12:49;97530.41;;;11.67;52.55
40155;BME280;25875;48.202;16.334;2023-03-14T11:15:21;97539.59;;;11.63;52.15
40155;BME280;25875;48.202;16.334;2023-03-14T11:18:03;97539.75;;;11.61;52.26
40155;BME280;25875;48.202;16.334;2023-03-14T11:20:38;97529.41;;;11.58;52.41
40155;BME280;25875;48.202;16.334;2023-03-14T11:23:13;97535.69;;;11.57;52.25
40155;BME280;25875;48.202;16.334;2023-03-14T11:25:47;97442.38;;;11.02;51.90
40155;BME280;25875;48.202;16.334;2023-03-14T11:28:18;97416.28;;;10.46;52.00
40155;BME280;25875;48.202;16.334;2023-03-14T11:30:51;95536.00;;;-1.66;50.95
40155;BME280;25875;48.202;16.334;2023-03-14T11:33:22;97547.81;;;11.50;51.61
40155;BME280;25875;48.202;16.334;2023-03-14T11:35:58;97542.75;;;11.47;51.35
40155;BME280;25875;48.202;16.334;2023-03-14T11:38:32;97545.81;;;11.42;51.78
40155;BME280;25875;48.202;16.334;2023-03-14T11:41:02;97486.34;;;11.05;52.17
40155;BME280;25875;48.202;16.334;2023-03-14T11:43:33;97546.78;;;11.41;51.85
40155;BME280;25875;48.202;16.334;2023-03-14T11:46:05;97560.97;;;11.31;51.85
40155;BME280;25875;48.202;16.334;2023-03-14T11:48:38;97461.44;;;10.66;51.86
40155;BME280;25875;48.202;16.334;2023-03-14T11:51:11;97550.91;;;11.24;52.00
40155;BME280;25875;48.202;16.334;2023-03-14T11:53:55;97306.50;;;9.78;51.90
40155;BME280;25875;48.202;16.334;2023-03-14T11:56:31;97448.97;;;10.56;51.90
40155;BME280;25875;48.202;16.334;2023-03-14T11:59:03;97445.16;;;10.49;51.69
40155;BME280;25875;48.202;16.334;2023-03-14T12:01:38;97540.13;;;11.16;52.03
40155;BME280;25875;48.202;16.334;2023-03-14T12:04:11;97480.75;;;10.77;52.33
40155;BME280;25875;48.202;16.334;2023-03-14T12:06:45;96827.72;;;6.70;52.38
40155;BME280;25875;48.202;16.334;2023-03-14T12:09:15;97543.13;;;11.02;52.47
40155;BME280;25875;48.202;16.334;2023-03-14T12:11:47;97504.63;;;10.77;52.59
40155;BME280;25875;48.202;16.334;2023-03-14T12:14:21;97383.56;;;10.06;52.62
40155;BME280;25875;48.202;16.334;2023-03-14T12:16:50;97461.56;;;10.43;52.41
40155;BME280;25875;48.202;16.334;2023-03-14T12:19:28;97507.50;;;10.74;52.69
40155;BME280;25875;48.202;16.334;2023-03-14T12:21:58;97477.19;;;10.46;52.40
40155;BME280;25875;48.202;16.334;2023-03-14T12:24:29;97487.22;;;10.64;52.63
40155;BME280;25875;48.202;16.334;2023-03-14T12:26:59;97539.00;;;10.88;52.96
40155;BME280;25875;48.202;16.334;2023-03-14T12:29:27;97511.50;;;10.69;52.81
40155;BME280;25875;48.202;16.334;2023-03-14T12:32:22;97529.34;;;10.87;53.38
40155;BME280;25875;48.202;16.334;2023-03-14T12:34:50;97538.41;;;10.85;52.94
40155;BME280;25875;48.202;16.334;2023-03-14T12:37:24;97539.38;;;10.84;53.16
40155;BME280;25875;48.202;16.334;2023-03-14T12:40:02;97572.16;;;10.83;53.07
40155;BME280;25875;48.202;16.334;2023-03-14T12:42:45;97446.84;;;10.09;53.04
40155;BME280;25875;48.202;16.334;2023-03-14T12:45:27;97533.16;;;10.74;53.11
40155;BME280;25875;48.202;16.334;2023-03-14T12:48:00;97538.19;;;10.77;52.95
40155;BME280;25875;48.202;16.334;2023-03-14T12:50:34;97417.78;;;9.98;52.93
40155;BME280;25875;48.202;16.334;2023-03-14T12:56:03;97446.31;;;10.15;53.06
40155;BME280;25875;48.202;16.334;2023-03-14T12:58:35;97528.38;;;10.68;53.04
40155;BME280;25875;48.202;16.334;2023-03-14T13:01:06;97493.41;;;10.53;52.83
40155;BME280;25875;48.202;16.334;2023-03-14T13:03:45;97482.09;;;10.30;52.81
40155;BME280;25875;48.202;16.334;2023-03-14T13:06:12;97504.91;;;10.63;53.50
40155;BME280;25875;48.202;16.334;2023-03-14T13:08:41;97486.75;;;10.58;53.89
40155;BME280;25875;48.202;16.334;2023-03-14T13:11:12;97474.03;;;10.52;54.11